sensor_id;sensor_type;location;lat;lon;timestamp;P1;durP1;ratioP1;P2;durP2;ratioP2
35380;SDS011;21486;51.916;8.378;2023-02-12T00:02:07;83.88;;;36.38;;
35380;SDS011;21486;51.916;8.378;2023-02-12T00:04:33;75.10;;;34.65;;
35380;SDS011;21486;51.916;8.378;2023-02-12T00:06:59;79.05;;;34.28;;
35380;SDS011;21486;51.916;8.378;2023-02-12T00:09:24;72.70;;;34.75;;
35380;SDS011;21486;51.916;8.378;2023-02-12T00:11:50;75.22;;;34.80;;
35380;SDS011;21486;51.916;8.378;2023-02-12T00:14:15;74.07;;;33.95;;
35380;SDS011;21486;51.916;8.378;2023-02-12T00:16:41;82.38;;;36.60;;
35380;SDS011;21486;51.916;8.378;2023-02-12T00:19:07;77.05;;;34.55;;
35380;SDS011;21486;51.916;8.378;2023-02-12T00:21:33;77.75;;;35.38;;
35380;SDS011;21486;51.916;8.378;2023-02-12T00:23:59;75.22;;;35.38;;
35380;SDS011;21486;51.916;8.378;2023-02-12T00:26:26;72.45;;;35.45;;
35380;SDS011;21486;51.916;8.378;2023-02-12T00:28:51;77.20;;;34.88;;
35380;SDS011;21486;51.916;8.378;2023-02-12T00:31:18;71.82;;;33.92;;
35380;SDS011;21486;51.916;8.378;2023-02-12T00:33:46;71.90;;;35.38;;
35380;SDS011;21486;51.916;8.378;2023-02-12T00:36:16;77.15;;;34.20;;
35380;SDS011;21486;51.916;8.378;2023-02-12T00:38:44;87.85;;;37.13;;
35380;SDS011;21486;51.916;8.378;2023-02-12T00:41:10;79.13;;;33.83;;
35380;SDS011;21486;51.916;8.378;2023-02-12T00:43:36;83.45;;;35.92;;
35380;SDS011;21486;51.916;8.378;2023-02-12T00:46:02;68.43;;;32.65;;
35380;SDS011;21486;51.916;8.378;2023-02-12T00:48:28;69.57;;;33.50;;
35380;SDS011;21486;51.916;8.378;2023-02-12T00:50:54;84.55;;;35.97;;
35380;SDS011;21486;51.916;8.378;2023-02-12T00:53:20;67.07;;;32.30;;
35380;SDS011;21486;51.916;8.378;2023-02-12T00:55:46;63.72;;;31.52;;
35380;SDS011;21486;51.916;8.378;2023-02-12T00:58:11;70.68;;;32.80;;
35380;SDS011;21486;51.916;8.378;2023-02-12T01:00:37;69.95;;;29.42;;
35380;SDS011;21486;51.916;8.378;2023-02-12T01:03:03;72.05;;;32.85;;
35380;SDS011;21486;51.916;8.378;2023-02-12T01:05:29;70.70;;;32.92;;
35380;SDS011;21486;51.916;8.378;2023-02-12T01:07:55;78.35;;;33.92;;
35380;SDS011;21486;51.916;8.378;2023-02-12T01:10:21;67.30;;;30.65;;
35380;SDS011;21486;51.916;8.378;2023-02-12T01:12:46;65.78;;;31.95;;
35380;SDS011;21486;51.916;8.378;2023-02-12T01:15:13;60.08;;;31.27;;
35380;SDS011;21486;51.916;8.378;2023-02-12T01:17:39;67.80;;;32.92;;
35380;SDS011;21486;51.916;8.378;2023-02-12T01:20:05;62.58;;;31.63;;
35380;SDS011;21486;51.916;8.378;2023-02-12T01:22:35;70.65;;;33.45;;
35380;SDS011;21486;51.916;8.378;2023-02-12T01:25:02;75.18;;;32.53;;
35380;SDS011;21486;51.916;8.378;2023-02-12T01:27:31;64.60;;;31.63;;
35380;SDS011;21486;51.916;8.378;2023-02-12T01:29:57;68.28;;;32.58;;
35380;SDS011;21486;51.916;8.378;2023-02-12T01:33:01;72.75;;;33.85;;
35380;SDS011;21486;51.916;8.378;2023-02-12T01:35:26;82.20;;;34.38;;
35380;SDS011;21486;51.916;8.378;2023-02-12T01:37:52;68.13;;;33.60;;
35380;SDS011;21486;51.916;8.378;2023-02-12T01:40:17;70.68;;;33.47;;
35380;SDS011;21486;51.916;8.378;2023-02-12T01:42:43;85.88;;;34.80;;
35380;SDS011;21486;51.916;8.378;2023-02-12T01:47:38;82.50;;;35.80;;
35380;SDS011;21486;51.916;8.378;2023-02-12T01:50:07;81.28;;;36.08;;
35380;SDS011;21486;51.916;8.378;2023-02-12T01:52:35;81.10;;;38.28;;
35380;SDS011;21486;51.916;8.378;2023-02-12T01:55:04;82.82;;;37.13;;
35380;SDS011;21486;51.916;8.378;2023-02-12T01:57:33;69.40;;;34.70;;
35380;SDS011;21486;51.916;8.378;2023-02-12T02:00:03;74.32;;;34.35;;
35380;SDS011;21486;51.916;8.378;2023-02-12T02:02:31;73.82;;;33.55;;
35380;SDS011;21486;51.916;8.378;2023-02-12T02:04:58;76.85;;;34.35;;
35380;SDS011;21486;51.916;8.378;2023-02-12T02:07:26;75.05;;;34.67;;
35380;SDS011;21486;51.916;8.378;2023-02-12T02:09:52;79.47;;;35.47;;
35380;SDS011;21486;51.916;8.378;2023-02-12T02:12:18;73.80;;;33.88;;
35380;SDS011;21486;51.916;8.378;2023-02-12T02:15:03;75.28;;;35.05;;
35380;SDS011;21486;51.916;8.378;2023-02-12T02:17:32;69.63;;;33.65;;
35380;SDS011;21486;51.916;8.378;2023-02-12T02:20:15;76.53;;;34.95;;
35380;SDS011;21486;51.916;8.378;2023-02-12T02:34:25;77.90;;;34.35;;
35380;SDS011;21486;51.916;8.378;2023-02-12T02:45:24;79.75;;;36.20;;
35380;SDS011;21486;51.916;8.378;2023-02-12T02:47:52;81.28;;;34.97;;
35380;SDS011;21486;51.916;8.378;2023-02-12T02:50:30;81.43;;;35.47;;
35380;SDS011;21486;51.916;8.378;2023-02-12T02:53:05;84.35;;;36.70;;
35380;SDS011;21486;51.916;8.378;2023-02-12T02:58:06;80.50;;;37.15;;
35380;SDS011;21486;51.916;8.378;2023-02-12T03:00:37;90.50;;;38.17;;
35380;SDS011;21486;51.916;8.378;2023-02-12T03:03:21;77.28;;;34.85;;
35380;SDS011;21486;51.916;8.378;2023-02-12T03:05:53;81.13;;;34.80;;
35380;SDS011;21486;51.916;8.378;2023-02-12T03:08:25;88.45;;;38.33;;
35380;SDS011;21486;51.916;8.378;2023-02-12T03:11:06;82.43;;;36.47;;
35380;SDS011;21486;51.916;8.378;2023-02-12T03:13:39;85.68;;;38.25;;
35380;SDS011;21486;51.916;8.378;2023-02-12T03:16:15;81.85;;;38.10;;
35380;SDS011;21486;51.916;8.378;2023-02-12T03:18:47;85.28;;;37.63;;
35380;SDS011;21486;51.916;8.378;2023-02-12T03:21:23;77.13;;;35.63;;
35380;SDS011;21486;51.916;8.378;2023-02-12T03:27:25;84.13;;;35.22;;
35380;SDS011;21486;51.916;8.378;2023-02-12T03:29:21;90.63;;;39.28;;
35380;SDS011;21486;51.916;8.378;2023-02-12T03:31:53;85.13;;;38.72;;
35380;SDS011;21486;51.916;8.378;2023-02-12T03:34:40;78.95;;;37.35;;
35380;SDS011;21486;51.916;8.378;2023-02-12T03:37:25;75.00;;;35.38;;
35380;SDS011;21486;51.916;8.378;2023-02-12T03:40:07;87.72;;;37.53;;
35380;SDS011;21486;51.916;8.378;2023-02-12T03:43:02;82.07;;;37.47;;
35380;SDS011;21486;51.916;8.378;2023-02-12T03:45:57;81.15;;;37.38;;
35380;SDS011;21486;51.916;8.378;2023-02-12T03:48:40;84.22;;;37.28;;
35380;SDS011;21486;51.916;8.378;2023-02-12T03:51:15;84.88;;;38.45;;
35380;SDS011;21486;51.916;8.378;2023-02-12T03:53:50;88.90;;;38.67;;
35380;SDS011;21486;51.916;8.378;2023-02-12T03:56:18;79.85;;;38.20;;
35380;SDS011;21486;51.916;8.378;2023-02-12T03:58:47;89.55;;;39.03;;
35380;SDS011;21486;51.916;8.378;2023-02-12T04:01:13;86.68;;;39.10;;
35380;SDS011;21486;51.916;8.378;2023-02-12T04:03:39;88.07;;;38.78;;
35380;SDS011;21486;51.916;8.378;2023-02-12T04:06:17;85.00;;;38.90;;
35380;SDS011;21486;51.916;8.378;2023-02-12T04:08:45;92.10;;;39.47;;
35380;SDS011;21486;51.916;8.378;2023-02-12T04:13:45;90.75;;;38.30;;
35380;SDS011;21486;51.916;8.378;2023-02-12T04:16:32;82.83;;;39.00;;
35380;SDS011;21486;51.916;8.378;2023-02-12T04:19:05;92.93;;;40.58;;
35380;SDS011;21486;51.916;8.378;2023-02-12T04:24:36;88.63;;;39.50;;
35380;SDS011;21486;51.916;8.378;2023-02-12T04:27:14;85.35;;;37.75;;
35380;SDS011;21486;51.916;8.378;2023-02-12T04:32:47;94.90;;;37.90;;
35380;SDS011;21486;51.916;8.378;2023-02-12T04:35:31;86.97;;;40.20;;
35380;SDS011;21486;51.916;8.378;2023-02-12T04:38:16;96.10;;;40.92;;
35380;SDS011;21486;51.916;8.378;2023-02-12T04:40:49;95.60;;;41.45;;
35380;SDS011;21486;51.916;8.378;2023-02-12T04:46:11;91.47;;;39.60;;
35380;SDS011;21486;51.916;8.378;2023-02-12T04:48:37;87.78;;;41.03;;
35380;SDS011;21486;51.916;8.378;2023-02-12T04:51:14;88.43;;;38.53;;
35380;SDS011;21486;51.916;8.378;2023-02-12T04:53:39;97.40;;;41.38;;
35380;SDS011;21486;51.916;8.378;2023-02-12T04:56:05;96.35;;;40.72;;
35380;SDS011;21486;51.916;8.378;2023-02-12T04:58:35;93.72;;;38.67;;
35380;SDS011;21486;51.916;8.378;2023-02-12T05:01:01;99.25;;;41.50;;
35380;SDS011;21486;51.916;8.378;2023-02-12T05:03:27;95.75;;;39.78;;
35380;SDS011;21486;51.916;8.378;2023-02-12T05:05:52;95.07;;;38.30;;
35380;SDS011;21486;51.916;8.378;2023-02-12T05:08:18;92.97;;;39.90;;
35380;SDS011;21486;51.916;8.378;2023-02-12T05:10:43;91.70;;;39.35;;
35380;SDS011;21486;51.916;8.378;2023-02-12T05:13:09;84.18;;;39.03;;
35380;SDS011;21486;51.916;8.378;2023-02-12T05:15:37;83.65;;;38.22;;
35380;SDS011;21486;51.916;8.378;2023-02-12T05:18:03;86.07;;;37.55;;
35380;SDS011;21486;51.916;8.378;2023-02-12T05:20:28;88.93;;;38.60;;
35380;SDS011;21486;51.916;8.378;2023-02-12T05:22:54;83.15;;;37.08;;
35380;SDS011;21486;51.916;8.378;2023-02-12T05:25:20;91.35;;;38.78;;
35380;SDS011;21486;51.916;8.378;2023-02-12T05:30:45;85.47;;;36.78;;
35380;SDS011;21486;51.916;8.378;2023-02-12T05:33:10;78.60;;;37.25;;
35380;SDS011;21486;51.916;8.378;2023-02-12T05:35:36;88.75;;;37.97;;
35380;SDS011;21486;51.916;8.378;2023-02-12T05:38:01;80.35;;;36.40;;
35380;SDS011;21486;51.916;8.378;2023-02-12T05:40:27;77.28;;;36.00;;
35380;SDS011;21486;51.916;8.378;2023-02-12T05:42:52;83.93;;;34.55;;
35380;SDS011;21486;51.916;8.378;2023-02-12T05:45:18;82.20;;;36.35;;
35380;SDS011;21486;51.916;8.378;2023-02-12T05:47:44;86.30;;;36.78;;
35380;SDS011;21486;51.916;8.378;2023-02-12T05:50:09;72.78;;;34.55;;
35380;SDS011;21486;51.916;8.378;2023-02-12T05:52:35;83.15;;;37.25;;
35380;SDS011;21486;51.916;8.378;2023-02-12T05:55:00;83.60;;;36.92;;
35380;SDS011;21486;51.916;8.378;2023-02-12T05:57:26;79.32;;;37.72;;
35380;SDS011;21486;51.916;8.378;2023-02-12T05:59:52;83.30;;;37.55;;
35380;SDS011;21486;51.916;8.378;2023-02-12T06:02:17;85.75;;;37.63;;
35380;SDS011;21486;51.916;8.378;2023-02-12T06:04:43;84.82;;;37.13;;
35380;SDS011;21486;51.916;8.378;2023-02-12T06:07:08;77.70;;;35.42;;
35380;SDS011;21486;51.916;8.378;2023-02-12T06:09:34;92.25;;;38.30;;
35380;SDS011;21486;51.916;8.378;2023-02-12T06:12:01;90.35;;;39.08;;
35380;SDS011;21486;51.916;8.378;2023-02-12T06:14:26;91.35;;;36.88;;
35380;SDS011;21486;51.916;8.378;2023-02-12T06:16:52;93.43;;;39.15;;
35380;SDS011;21486;51.916;8.378;2023-02-12T06:19:18;100.72;;;38.78;;
35380;SDS011;21486;51.916;8.378;2023-02-12T06:21:44;97.88;;;39.78;;
35380;SDS011;21486;51.916;8.378;2023-02-12T06:24:11;95.00;;;39.65;;
35380;SDS011;21486;51.916;8.378;2023-02-12T06:26:37;110.40;;;43.00;;
35380;SDS011;21486;51.916;8.378;2023-02-12T06:29:03;102.03;;;41.83;;
35380;SDS011;21486;51.916;8.378;2023-02-12T06:31:30;94.78;;;41.75;;
35380;SDS011;21486;51.916;8.378;2023-02-12T06:33:59;99.75;;;40.13;;
35380;SDS011;21486;51.916;8.378;2023-02-12T06:36:26;98.60;;;41.22;;
35380;SDS011;21486;51.916;8.378;2023-02-12T06:38:52;96.78;;;40.97;;
35380;SDS011;21486;51.916;8.378;2023-02-12T06:41:18;100.45;;;39.58;;
35380;SDS011;21486;51.916;8.378;2023-02-12T06:43:44;100.65;;;39.35;;
35380;SDS011;21486;51.916;8.378;2023-02-12T06:46:10;99.05;;;41.58;;
35380;SDS011;21486;51.916;8.378;2023-02-12T06:48:36;102.13;;;42.67;;
35380;SDS011;21486;51.916;8.378;2023-02-12T06:51:09;108.95;;;41.03;;
35380;SDS011;21486;51.916;8.378;2023-02-12T06:53:37;93.90;;;39.60;;
35380;SDS011;21486;51.916;8.378;2023-02-12T06:56:04;90.78;;;39.90;;
35380;SDS011;21486;51.916;8.378;2023-02-12T06:58:30;103.05;;;39.40;;
35380;SDS011;21486;51.916;8.378;2023-02-12T07:00:56;100.93;;;40.13;;
35380;SDS011;21486;51.916;8.378;2023-02-12T07:03:21;108.68;;;40.50;;
35380;SDS011;21486;51.916;8.378;2023-02-12T07:05:47;101.30;;;41.50;;
35380;SDS011;21486;51.916;8.378;2023-02-12T07:08:13;96.13;;;40.10;;
35380;SDS011;21486;51.916;8.378;2023-02-12T07:10:39;95.10;;;41.20;;
35380;SDS011;21486;51.916;8.378;2023-02-12T07:13:05;95.40;;;39.92;;
35380;SDS011;21486;51.916;8.378;2023-02-12T07:15:30;100.93;;;40.88;;
35380;SDS011;21486;51.916;8.378;2023-02-12T07:17:56;98.85;;;40.92;;
35380;SDS011;21486;51.916;8.378;2023-02-12T07:20:21;97.47;;;41.05;;
35380;SDS011;21486;51.916;8.378;2023-02-12T07:22:47;107.60;;;42.13;;
35380;SDS011;21486;51.916;8.378;2023-02-12T07:25:12;95.40;;;42.20;;
35380;SDS011;21486;51.916;8.378;2023-02-12T07:27:38;94.93;;;39.90;;
35380;SDS011;21486;51.916;8.378;2023-02-12T07:30:04;93.88;;;40.40;;
35380;SDS011;21486;51.916;8.378;2023-02-12T07:32:32;107.90;;;40.88;;
35380;SDS011;21486;51.916;8.378;2023-02-12T07:34:58;95.93;;;39.55;;
35380;SDS011;21486;51.916;8.378;2023-02-12T07:37:23;97.63;;;41.38;;
35380;SDS011;21486;51.916;8.378;2023-02-12T07:39:49;89.55;;;40.42;;
35380;SDS011;21486;51.916;8.378;2023-02-12T07:42:15;85.60;;;40.38;;
35380;SDS011;21486;51.916;8.378;2023-02-12T07:44:41;95.43;;;40.63;;
35380;SDS011;21486;51.916;8.378;2023-02-12T07:47:07;91.32;;;39.45;;
35380;SDS011;21486;51.916;8.378;2023-02-12T07:49:33;88.18;;;39.42;;
35380;SDS011;21486;51.916;8.378;2023-02-12T07:51:58;83.18;;;38.67;;
35380;SDS011;21486;51.916;8.378;2023-02-12T07:54:24;88.07;;;38.20;;
35380;SDS011;21486;51.916;8.378;2023-02-12T07:56:50;89.32;;;37.33;;
35380;SDS011;21486;51.916;8.378;2023-02-12T07:59:16;85.00;;;38.53;;
35380;SDS011;21486;51.916;8.378;2023-02-12T08:01:49;86.05;;;36.38;;
35380;SDS011;21486;51.916;8.378;2023-02-12T08:04:18;81.30;;;38.92;;
35380;SDS011;21486;51.916;8.378;2023-02-12T08:06:46;82.18;;;38.38;;
35380;SDS011;21486;51.916;8.378;2023-02-12T08:09:14;80.32;;;37.88;;
35380;SDS011;21486;51.916;8.378;2023-02-12T08:11:42;91.10;;;39.28;;
35380;SDS011;21486;51.916;8.378;2023-02-12T08:14:10;93.57;;;39.65;;
35380;SDS011;21486;51.916;8.378;2023-02-12T08:16:38;85.95;;;37.55;;
35380;SDS011;21486;51.916;8.378;2023-02-12T08:19:04;81.43;;;36.22;;
35380;SDS011;21486;51.916;8.378;2023-02-12T08:21:30;88.35;;;37.72;;
35380;SDS011;21486;51.916;8.378;2023-02-12T08:23:56;78.68;;;36.90;;
35380;SDS011;21486;51.916;8.378;2023-02-12T08:26:24;85.18;;;37.78;;
35380;SDS011;21486;51.916;8.378;2023-02-12T08:28:58;82.65;;;36.65;;
35380;SDS011;21486;51.916;8.378;2023-02-12T08:31:28;81.90;;;36.15;;
35380;SDS011;21486;51.916;8.378;2023-02-12T08:33:55;84.82;;;40.28;;
35380;SDS011;21486;51.916;8.378;2023-02-12T08:36:23;84.60;;;38.90;;
35380;SDS011;21486;51.916;8.378;2023-02-12T08:39:09;79.95;;;37.50;;
35380;SDS011;21486;51.916;8.378;2023-02-12T08:41:35;86.97;;;37.55;;
35380;SDS011;21486;51.916;8.378;2023-02-12T08:44:02;78.10;;;36.97;;
35380;SDS011;21486;51.916;8.378;2023-02-12T08:46:29;84.10;;;44.57;;
35380;SDS011;21486;51.916;8.378;2023-02-12T08:49:00;83.57;;;43.83;;
35380;SDS011;21486;51.916;8.378;2023-02-12T08:51:37;86.93;;;46.20;;
35380;SDS011;21486;51.916;8.378;2023-02-12T08:54:11;77.57;;;43.13;;
35380;SDS011;21486;51.916;8.378;2023-02-12T08:56:38;83.30;;;44.53;;
35380;SDS011;21486;51.916;8.378;2023-02-12T08:59:04;84.70;;;45.25;;
35380;SDS011;21486;51.916;8.378;2023-02-12T09:01:32;89.32;;;45.55;;
35380;SDS011;21486;51.916;8.378;2023-02-12T09:03:59;78.53;;;44.40;;
35380;SDS011;21486;51.916;8.378;2023-02-12T09:06:25;74.35;;;40.90;;
35380;SDS011;21486;51.916;8.378;2023-02-12T09:08:52;66.45;;;39.60;;
35380;SDS011;21486;51.916;8.378;2023-02-12T09:11:19;72.20;;;40.25;;
35380;SDS011;21486;51.916;8.378;2023-02-12T09:13:54;71.22;;;38.88;;
35380;SDS011;21486;51.916;8.378;2023-02-12T09:16:22;73.32;;;40.10;;
35380;SDS011;21486;51.916;8.378;2023-02-12T09:18:48;70.87;;;39.50;;
35380;SDS011;21486;51.916;8.378;2023-02-12T09:21:14;65.78;;;38.17;;
35380;SDS011;21486;51.916;8.378;2023-02-12T09:23:40;74.53;;;39.55;;
35380;SDS011;21486;51.916;8.378;2023-02-12T09:26:10;63.57;;;37.27;;
35380;SDS011;21486;51.916;8.378;2023-02-12T09:28:39;67.30;;;37.00;;
35380;SDS011;21486;51.916;8.378;2023-02-12T09:31:05;66.32;;;37.85;;
35380;SDS011;21486;51.916;8.378;2023-02-12T09:33:38;59.28;;;35.10;;
35380;SDS011;21486;51.916;8.378;2023-02-12T09:36:06;58.57;;;33.13;;
35380;SDS011;21486;51.916;8.378;2023-02-12T09:38:34;52.03;;;30.00;;
35380;SDS011;21486;51.916;8.378;2023-02-12T09:41:07;52.40;;;27.60;;
35380;SDS011;21486;51.916;8.378;2023-02-12T09:52:13;43.97;;;21.45;;
35380;SDS011;21486;51.916;8.378;2023-02-12T09:54:41;44.13;;;22.23;;
35380;SDS011;21486;51.916;8.378;2023-02-12T09:57:18;59.75;;;22.40;;
35380;SDS011;21486;51.916;8.378;2023-02-12T09:59:52;37.92;;;20.15;;
35380;SDS011;21486;51.916;8.378;2023-02-12T10:02:39;40.60;;;19.25;;
35380;SDS011;21486;51.916;8.378;2023-02-12T10:05:05;42.22;;;19.58;;
35380;SDS011;21486;51.916;8.378;2023-02-12T10:07:56;42.13;;;19.83;;
35380;SDS011;21486;51.916;8.378;2023-02-12T10:10:38;43.53;;;22.10;;
35380;SDS011;21486;51.916;8.378;2023-02-12T10:13:29;40.80;;;20.25;;
35380;SDS011;21486;51.916;8.378;2023-02-12T10:25:08;49.67;;;22.83;;
35380;SDS011;21486;51.916;8.378;2023-02-12T10:27:58;45.65;;;23.35;;
35380;SDS011;21486;51.916;8.378;2023-02-12T13:34:43;9.15;;;5.93;;
35380;SDS011;21486;51.916;8.378;2023-02-12T13:39:57;11.30;;;6.88;;
35380;SDS011;21486;51.916;8.378;2023-02-12T13:42:34;12.63;;;7.47;;
35380;SDS011;21486;51.916;8.378;2023-02-12T13:50:50;9.95;;;6.50;;
35380;SDS011;21486;51.916;8.378;2023-02-12T13:59:01;15.00;;;8.00;;
35380;SDS011;21486;51.916;8.378;2023-02-12T14:01:36;11.60;;;6.50;;
35380;SDS011;21486;51.916;8.378;2023-02-12T14:05:04;10.98;;;6.07;;
35380;SDS011;21486;51.916;8.378;2023-02-12T14:19:38;10.68;;;5.53;;
35380;SDS011;21486;51.916;8.378;2023-02-12T14:24:54;14.52;;;6.85;;
35380;SDS011;21486;51.916;8.378;2023-02-12T14:37:51;14.50;;;5.80;;
35380;SDS011;21486;51.916;8.378;2023-02-12T14:43:01;12.77;;;7.65;;
35380;SDS011;21486;51.916;8.378;2023-02-12T14:45:32;13.93;;;7.30;;
35380;SDS011;21486;51.916;8.378;2023-02-12T14:48:00;12.10;;;7.60;;
35380;SDS011;21486;51.916;8.378;2023-02-12T14:50:29;12.60;;;7.30;;
35380;SDS011;21486;51.916;8.378;2023-02-12T14:53:06;10.90;;;7.25;;
35380;SDS011;21486;51.916;8.378;2023-02-12T14:55:47;13.33;;;7.53;;
35380;SDS011;21486;51.916;8.378;2023-02-12T14:58:16;12.13;;;7.15;;
35380;SDS011;21486;51.916;8.378;2023-02-12T15:00:46;13.30;;;6.30;;
35380;SDS011;21486;51.916;8.378;2023-02-12T15:03:16;7.72;;;5.43;;
35380;SDS011;21486;51.916;8.378;2023-02-12T15:05:51;12.20;;;5.90;;
35380;SDS011;21486;51.916;8.378;2023-02-12T15:08:27;10.98;;;6.10;;
35380;SDS011;21486;51.916;8.378;2023-02-12T15:11:22;10.27;;;5.80;;
35380;SDS011;21486;51.916;8.378;2023-02-12T15:14:15;15.35;;;7.38;;
35380;SDS011;21486;51.916;8.378;2023-02-12T15:16:51;10.82;;;5.70;;
35380;SDS011;21486;51.916;8.378;2023-02-12T15:24:43;10.98;;;6.15;;
35380;SDS011;21486;51.916;8.378;2023-02-12T15:27:10;11.23;;;6.55;;
35380;SDS011;21486;51.916;8.378;2023-02-12T15:29:42;13.80;;;6.15;;
35380;SDS011;21486;51.916;8.378;2023-02-12T15:32:18;11.35;;;6.32;;
35380;SDS011;21486;51.916;8.378;2023-02-12T15:37:24;11.88;;;6.15;;
35380;SDS011;21486;51.916;8.378;2023-02-12T15:39:53;12.52;;;6.05;;
35380;SDS011;21486;51.916;8.378;2023-02-12T15:42:25;11.60;;;7.40;;
35380;SDS011;21486;51.916;8.378;2023-02-12T15:44:51;12.18;;;6.53;;
35380;SDS011;21486;51.916;8.378;2023-02-12T15:47:25;12.65;;;6.43;;
35380;SDS011;21486;51.916;8.378;2023-02-12T15:49:51;15.68;;;7.07;;
35380;SDS011;21486;51.916;8.378;2023-02-12T15:52:26;11.02;;;7.45;;
35380;SDS011;21486;51.916;8.378;2023-02-12T15:57:24;15.68;;;7.15;;
35380;SDS011;21486;51.916;8.378;2023-02-12T15:59:54;11.55;;;6.55;;
35380;SDS011;21486;51.916;8.378;2023-02-12T16:02:28;16.52;;;7.65;;
35380;SDS011;21486;51.916;8.378;2023-02-12T16:04:56;12.38;;;7.20;;
35380;SDS011;21486;51.916;8.378;2023-02-12T16:07:23;13.95;;;7.30;;
35380;SDS011;21486;51.916;8.378;2023-02-12T16:09:50;16.42;;;9.35;;
35380;SDS011;21486;51.916;8.378;2023-02-12T16:12:18;15.93;;;8.23;;
35380;SDS011;21486;51.916;8.378;2023-02-12T16:14:50;17.20;;;7.72;;
35380;SDS011;21486;51.916;8.378;2023-02-12T16:22:42;104.00;;;54.75;;
35380;SDS011;21486;51.916;8.378;2023-02-12T16:28:04;30.92;;;16.25;;
35380;SDS011;21486;51.916;8.378;2023-02-12T16:30:33;15.48;;;8.77;;
35380;SDS011;21486;51.916;8.378;2023-02-12T16:33:03;37.60;;;17.83;;
35380;SDS011;21486;51.916;8.378;2023-02-12T16:35:30;15.13;;;8.45;;
35380;SDS011;21486;51.916;8.378;2023-02-12T16:38:44;14.68;;;8.50;;
35380;SDS011;21486;51.916;8.378;2023-02-12T16:41:12;17.67;;;9.68;;
35380;SDS011;21486;51.916;8.378;2023-02-12T16:43:48;17.75;;;9.45;;
35380;SDS011;21486;51.916;8.378;2023-02-12T16:46:43;17.15;;;8.82;;
35380;SDS011;21486;51.916;8.378;2023-02-12T16:49:14;15.65;;;8.65;;
35380;SDS011;21486;51.916;8.378;2023-02-12T16:51:42;16.15;;;8.10;;
35380;SDS011;21486;51.916;8.378;2023-02-12T16:54:25;16.55;;;7.20;;
35380;SDS011;21486;51.916;8.378;2023-02-12T16:56:56;11.93;;;7.80;;
35380;SDS011;21486;51.916;8.378;2023-02-12T16:59:23;16.73;;;8.10;;
35380;SDS011;21486;51.916;8.378;2023-02-12T17:01:55;18.55;;;7.82;;
35380;SDS011;21486;51.916;8.378;2023-02-12T17:04:29;12.82;;;7.30;;
35380;SDS011;21486;51.916;8.378;2023-02-12T17:06:55;15.48;;;8.10;;
35380;SDS011;21486;51.916;8.378;2023-02-12T17:09:21;11.95;;;7.65;;
35380;SDS011;21486;51.916;8.378;2023-02-12T17:11:47;17.83;;;9.10;;
35380;SDS011;21486;51.916;8.378;2023-02-12T17:14:17;17.30;;;10.57;;
35380;SDS011;21486;51.916;8.378;2023-02-12T17:16:44;28.13;;;14.27;;
35380;SDS011;21486;51.916;8.378;2023-02-12T17:19:10;20.92;;;11.82;;
35380;SDS011;21486;51.916;8.378;2023-02-12T17:21:36;17.98;;;9.65;;
35380;SDS011;21486;51.916;8.378;2023-02-12T17:24:05;20.98;;;10.18;;
35380;SDS011;21486;51.916;8.378;2023-02-12T17:26:35;17.95;;;10.38;;
35380;SDS011;21486;51.916;8.378;2023-02-12T17:29:00;22.27;;;11.65;;
35380;SDS011;21486;51.916;8.378;2023-02-12T17:31:30;18.17;;;10.73;;
35380;SDS011;21486;51.916;8.378;2023-02-12T17:33:56;19.02;;;11.13;;
35380;SDS011;21486;51.916;8.378;2023-02-12T17:36:22;19.83;;;11.60;;
35380;SDS011;21486;51.916;8.378;2023-02-12T17:38:48;21.17;;;10.85;;
35380;SDS011;21486;51.916;8.378;2023-02-12T17:41:14;24.00;;;11.77;;
35380;SDS011;21486;51.916;8.378;2023-02-12T17:43:39;20.25;;;12.00;;
35380;SDS011;21486;51.916;8.378;2023-02-12T17:46:09;24.60;;;12.98;;
35380;SDS011;21486;51.916;8.378;2023-02-12T17:48:36;24.60;;;12.82;;
35380;SDS011;21486;51.916;8.378;2023-02-12T17:51:02;22.38;;;12.98;;
35380;SDS011;21486;51.916;8.378;2023-02-12T17:53:28;21.70;;;12.77;;
35380;SDS011;21486;51.916;8.378;2023-02-12T17:55:53;24.45;;;12.55;;
35380;SDS011;21486;51.916;8.378;2023-02-12T17:58:19;21.63;;;13.18;;
35380;SDS011;21486;51.916;8.378;2023-02-12T18:00:44;27.23;;;13.77;;
35380;SDS011;21486;51.916;8.378;2023-02-12T18:03:10;24.40;;;13.63;;
35380;SDS011;21486;51.916;8.378;2023-02-12T18:05:42;25.15;;;13.70;;
35380;SDS011;21486;51.916;8.378;2023-02-12T18:08:09;25.33;;;14.55;;
35380;SDS011;21486;51.916;8.378;2023-02-12T18:10:41;24.80;;;14.40;;
35380;SDS011;21486;51.916;8.378;2023-02-12T18:13:08;28.20;;;14.70;;
35380;SDS011;21486;51.916;8.378;2023-02-12T18:15:34;24.90;;;14.70;;
35380;SDS011;21486;51.916;8.378;2023-02-12T18:18:00;28.20;;;14.50;;
35380;SDS011;21486;51.916;8.378;2023-02-12T18:20:26;23.45;;;14.15;;
35380;SDS011;21486;51.916;8.378;2023-02-12T18:22:51;28.70;;;14.13;;
35380;SDS011;21486;51.916;8.378;2023-02-12T18:25:17;24.65;;;13.93;;
35380;SDS011;21486;51.916;8.378;2023-02-12T18:27:43;29.92;;;13.65;;
35380;SDS011;21486;51.916;8.378;2023-02-12T18:30:08;22.95;;;13.25;;
35380;SDS011;21486;51.916;8.378;2023-02-12T18:32:35;24.70;;;15.00;;
35380;SDS011;21486;51.916;8.378;2023-02-12T18:35:04;29.63;;;14.70;;
35380;SDS011;21486;51.916;8.378;2023-02-12T18:37:31;31.23;;;16.25;;
35380;SDS011;21486;51.916;8.378;2023-02-12T18:39:56;28.45;;;14.55;;
35380;SDS011;21486;51.916;8.378;2023-02-12T18:42:22;31.50;;;16.17;;
35380;SDS011;21486;51.916;8.378;2023-02-12T18:44:49;28.15;;;15.48;;
35380;SDS011;21486;51.916;8.378;2023-02-12T18:47:15;25.92;;;14.80;;
35380;SDS011;21486;51.916;8.378;2023-02-12T18:49:41;26.98;;;14.63;;
35380;SDS011;21486;51.916;8.378;2023-02-12T18:52:06;34.63;;;15.77;;
35380;SDS011;21486;51.916;8.378;2023-02-12T18:54:32;25.13;;;14.65;;
35380;SDS011;21486;51.916;8.378;2023-02-12T18:56:58;26.30;;;14.75;;
35380;SDS011;21486;51.916;8.378;2023-02-12T18:59:23;28.38;;;14.80;;
35380;SDS011;21486;51.916;8.378;2023-02-12T19:01:50;27.50;;;14.00;;
35380;SDS011;21486;51.916;8.378;2023-02-12T19:04:16;29.83;;;15.95;;
35380;SDS011;21486;51.916;8.378;2023-02-12T19:06:47;28.65;;;16.13;;
35380;SDS011;21486;51.916;8.378;2023-02-12T19:09:17;29.80;;;16.17;;
35380;SDS011;21486;51.916;8.378;2023-02-12T19:11:46;27.33;;;15.10;;
35380;SDS011;21486;51.916;8.378;2023-02-12T19:14:13;28.23;;;15.30;;
35380;SDS011;21486;51.916;8.378;2023-02-12T19:16:40;28.95;;;14.93;;
35380;SDS011;21486;51.916;8.378;2023-02-12T19:19:06;24.17;;;14.23;;
35380;SDS011;21486;51.916;8.378;2023-02-12T19:21:32;29.17;;;17.83;;
35380;SDS011;21486;51.916;8.378;2023-02-12T19:23:59;30.85;;;16.17;;
35380;SDS011;21486;51.916;8.378;2023-02-12T19:26:26;26.85;;;15.15;;
35380;SDS011;21486;51.916;8.378;2023-02-12T19:28:53;22.88;;;13.88;;
35380;SDS011;21486;51.916;8.378;2023-02-12T19:31:24;27.33;;;15.00;;
35380;SDS011;21486;51.916;8.378;2023-02-12T19:33:58;30.30;;;16.23;;
35380;SDS011;21486;51.916;8.378;2023-02-12T19:36:25;29.20;;;14.90;;
35380;SDS011;21486;51.916;8.378;2023-02-12T19:38:52;27.25;;;15.20;;
35380;SDS011;21486;51.916;8.378;2023-02-12T19:41:19;30.00;;;17.00;;
35380;SDS011;21486;51.916;8.378;2023-02-12T19:43:46;29.45;;;15.68;;